createdAt,value
2018-07-22T00:01:51.197Z,92.50
2018-07-22T00:04:19.520Z,92.50
2018-07-22T00:06:47.832Z,92.20
2018-07-22T00:09:16.188Z,92.20
2018-07-22T00:11:44.619Z,92.10
2018-07-22T00:14:12.958Z,92.20
2018-07-22T00:16:41.256Z,92.30
2018-07-22T00:19:10.213Z,92.10
2018-07-22T00:21:38.556Z,92.20
2018-07-22T00:24:06.940Z,92.10
2018-07-22T00:26:35.287Z,92.00
2018-07-22T00:29:03.653Z,92.00
2018-07-22T00:31:32.017Z,92.00
2018-07-22T00:34:00.323Z,92.10
2018-07-22T00:36:28.661Z,92.20
2018-07-22T00:38:56.983Z,92.30
2018-07-22T00:41:25.315Z,92.40
2018-07-22T00:43:53.632Z,92.40
2018-07-22T00:46:21.940Z,92.50
2018-07-22T00:48:50.258Z,92.50
2018-07-22T00:51:18.561Z,92.60
2018-07-22T00:53:46.901Z,92.50
2018-07-22T00:56:15.185Z,92.50
2018-07-22T00:58:43.538Z,92.50
2018-07-22T01:01:11.855Z,92.50
2018-07-22T01:03:40.164Z,92.40
2018-07-22T01:06:08.468Z,92.40
2018-07-22T01:08:36.815Z,92.40
2018-07-22T01:11:05.174Z,92.30
2018-07-22T01:13:33.483Z,92.30
2018-07-22T01:16:01.813Z,92.30
2018-07-22T01:18:30.721Z,92.30
2018-07-22T01:20:59.057Z,92.30
2018-07-22T01:23:27.394Z,92.40
2018-07-22T01:25:55.708Z,92.50
2018-07-22T01:28:24.156Z,92.50
2018-07-22T01:30:52.476Z,92.40
2018-07-22T01:33:20.786Z,92.50
2018-07-22T01:35:49.072Z,92.50
2018-07-22T01:38:17.396Z,92.70
2018-07-22T01:40:45.702Z,92.90
2018-07-22T01:43:14.055Z,93.20
2018-07-22T01:45:42.390Z,93.40
2018-07-22T01:48:10.699Z,93.70
2018-07-22T01:50:39.008Z,93.70
2018-07-22T01:53:07.359Z,93.80
2018-07-22T01:55:35.682Z,93.90
2018-07-22T01:58:04.104Z,93.90
2018-07-22T02:00:32.436Z,94.00
2018-07-22T02:03:00.735Z,94.30
2018-07-22T02:05:29.856Z,94.20
2018-07-22T02:07:58.173Z,94.00
2018-07-22T02:10:26.488Z,94.00
2018-07-22T02:12:54.792Z,94.10
2018-07-22T02:15:23.155Z,94.10
2018-07-22T02:17:51.503Z,94.20
2018-07-22T02:20:19.832Z,94.20
2018-07-22T02:22:48.168Z,94.30
2018-07-22T02:25:16.515Z,94.30
2018-07-22T02:27:44.838Z,94.40
2018-07-22T02:30:13.180Z,94.30
2018-07-22T02:32:41.505Z,94.30
2018-07-22T02:35:09.823Z,94.30
2018-07-22T02:37:38.435Z,94.30
2018-07-22T02:40:07.172Z,94.30
2018-07-22T02:42:35.498Z,94.40
2018-07-22T02:45:04.146Z,94.30
2018-07-22T02:47:32.459Z,94.40
2018-07-22T02:50:00.768Z,94.40
2018-07-22T02:52:29.077Z,94.50
2018-07-22T02:54:57.391Z,94.50
2018-07-22T02:57:25.708Z,94.50
2018-07-22T02:59:54.029Z,94.60
2018-07-22T03:02:22.324Z,94.70
2018-07-22T03:04:50.640Z,94.70
2018-07-22T03:07:18.987Z,94.90
2018-07-22T03:09:47.315Z,94.90
2018-07-22T03:12:15.631Z,94.90
2018-07-22T03:14:43.948Z,94.80
2018-07-22T03:17:12.914Z,94.80
2018-07-22T03:19:41.456Z,94.70
2018-07-22T03:22:09.773Z,94.60
2018-07-22T03:24:38.088Z,94.50
2018-07-22T03:27:06.592Z,94.80
2018-07-22T03:29:34.934Z,94.90
2018-07-22T03:32:03.248Z,95.00
2018-07-22T03:34:31.584Z,95.20
2018-07-22T03:36:59.977Z,95.40
2018-07-22T03:39:28.301Z,95.60
2018-07-22T03:41:56.613Z,95.60
2018-07-22T03:44:24.921Z,95.70
2018-07-22T03:46:53.231Z,95.80
2018-07-22T03:49:21.543Z,95.80
2018-07-22T03:51:49.883Z,95.90
2018-07-22T03:54:18.248Z,95.90
2018-07-22T03:56:47.579Z,95.80
2018-07-22T03:59:15.915Z,95.80
2018-07-22T04:01:44.231Z,95.80
2018-07-22T04:04:12.902Z,95.80
2018-07-22T04:06:41.207Z,95.90
2018-07-22T04:09:10.969Z,96.00
2018-07-22T04:11:40.145Z,95.90
2018-07-22T04:14:08.506Z,95.70
2018-07-22T04:16:36.880Z,95.70
2018-07-22T04:19:05.207Z,95.80
2018-07-22T04:21:33.604Z,95.80
2018-07-22T04:24:01.828Z,96.00
2018-07-22T04:26:30.148Z,95.90
2018-07-22T04:28:58.443Z,95.90
2018-07-22T04:31:26.747Z,96.00
2018-07-22T04:33:55.835Z,96.00
2018-07-22T04:36:24.193Z,96.20
2018-07-22T04:38:53.157Z,96.40
2018-07-22T04:41:21.472Z,96.60
2018-07-22T04:43:49.783Z,96.70
2018-07-22T04:46:18.139Z,96.80
2018-07-22T04:48:46.686Z,96.90
2018-07-22T04:51:15.022Z,96.50
2018-07-22T04:53:43.340Z,96.60
2018-07-22T04:56:11.672Z,96.80
2018-07-22T04:58:40.056Z,97.00
2018-07-22T05:01:08.392Z,97.10
2018-07-22T05:03:36.716Z,97.10
2018-07-22T05:06:05.064Z,97.00
2018-07-22T05:08:33.367Z,96.90
2018-07-22T05:11:01.695Z,97.30
2018-07-22T05:13:29.999Z,97.20
2018-07-22T05:15:58.432Z,97.10
2018-07-22T05:18:26.784Z,97.00
2018-07-22T05:20:55.208Z,97.50
2018-07-22T05:23:23.629Z,97.20
2018-07-22T05:25:52.012Z,97.30
2018-07-22T05:28:20.381Z,97.00
2018-07-22T05:30:48.760Z,97.00
2018-07-22T05:33:17.147Z,97.10
2018-07-22T05:35:45.554Z,97.30
2018-07-22T05:40:42.451Z,97.30
2018-07-22T05:43:10.789Z,97.10
2018-07-22T05:45:39.216Z,97.10
2018-07-22T05:48:07.648Z,97.10
2018-07-22T05:50:36.031Z,97.10
2018-07-22T05:53:04.368Z,97.10
2018-07-22T05:55:33.624Z,97.00
2018-07-22T05:58:01.982Z,97.10
2018-07-22T06:00:30.409Z,97.60
2018-07-22T06:02:58.851Z,97.60
2018-07-22T06:07:55.280Z,97.20
2018-07-22T06:10:23.596Z,97.10
2018-07-22T06:12:51.972Z,97.10
2018-07-22T06:15:20.445Z,97.30
2018-07-22T06:17:48.827Z,96.80
2018-07-22T06:20:18.128Z,96.90
2018-07-22T06:22:46.471Z,97.00
2018-07-22T06:25:14.929Z,96.70
2018-07-22T06:27:43.244Z,96.80
2018-07-22T06:30:13.359Z,96.60
2018-07-22T06:32:41.685Z,96.70
2018-07-22T06:35:10.255Z,96.50
2018-07-22T06:37:38.736Z,96.10
2018-07-22T06:40:07.175Z,96.10
2018-07-22T06:42:35.572Z,96.10
2018-07-22T06:45:04.760Z,96.10
2018-07-22T06:47:33.123Z,96.20
2018-07-22T06:50:01.552Z,96.20
2018-07-22T06:52:29.891Z,95.60
2018-07-22T06:54:58.224Z,95.50
2018-07-22T06:57:26.558Z,95.40
2018-07-22T06:59:55.017Z,95.60
2018-07-22T07:02:23.387Z,95.60
2018-07-22T07:04:52.390Z,95.40
2018-07-22T07:07:21.175Z,95.50
2018-07-22T07:09:49.608Z,95.30
2018-07-22T07:12:17.979Z,95.30
2018-07-22T07:14:46.315Z,95.00
2018-07-22T07:17:14.686Z,95.10
2018-07-22T07:19:46.596Z,95.10
2018-07-22T07:22:14.895Z,94.30
2018-07-22T07:24:43.312Z,94.00
2018-07-22T07:27:11.708Z,93.60
2018-07-22T07:29:40.119Z,93.40
2018-07-22T07:32:08.490Z,93.00
2018-07-22T07:34:36.848Z,92.80
2018-07-22T07:37:05.667Z,92.60
2018-07-22T07:39:33.979Z,92.70
2018-07-22T07:42:02.387Z,92.60
2018-07-22T07:44:30.689Z,92.40
2018-07-22T07:46:59.493Z,92.90
2018-07-22T07:49:27.875Z,92.60
2018-07-22T07:51:56.204Z,92.60
2018-07-22T07:54:24.508Z,92.40
2018-07-22T07:56:52.824Z,92.90
2018-07-22T07:59:21.163Z,92.30
2018-07-22T08:01:49.500Z,92.10
2018-07-22T08:04:17.824Z,92.00
2018-07-22T08:06:46.171Z,91.40
2018-07-22T08:09:14.973Z,91.10
2018-07-22T08:11:43.406Z,90.90
2018-07-22T08:14:11.828Z,90.80
2018-07-22T08:16:40.155Z,91.20
2018-07-22T08:19:08.516Z,91.30
2018-07-22T08:21:36.926Z,91.70
2018-07-22T08:24:05.200Z,90.30
2018-07-22T08:26:33.555Z,87.90
2018-07-22T08:29:21.987Z,88.20
2018-07-22T08:31:50.476Z,89.00
2018-07-22T08:34:18.932Z,85.80
2018-07-22T08:36:47.888Z,87.00
2018-07-22T08:39:17.226Z,85.00
2018-07-22T08:41:45.583Z,85.30
2018-07-22T08:44:13.948Z,83.80
2018-07-22T08:46:42.815Z,83.40
2018-07-22T08:49:11.109Z,83.20
2018-07-22T08:51:39.484Z,82.70
2018-07-22T08:54:07.815Z,81.80
2018-07-22T08:56:36.176Z,82.80
2018-07-22T08:59:06.317Z,82.00
2018-07-22T09:01:35.003Z,81.20
2018-07-22T09:04:03.635Z,81.10
2018-07-22T09:06:32.092Z,79.20
2018-07-22T09:09:01.697Z,75.50
2018-07-22T09:11:30.138Z,76.40
2018-07-22T09:13:58.648Z,76.10
2018-07-22T09:16:27.187Z,77.30
2018-07-22T09:18:56.956Z,77.50
2018-07-22T09:21:27.470Z,77.50
2018-07-22T09:23:59.289Z,77.60
2018-07-22T09:26:30.780Z,78.10
2018-07-22T09:29:00.493Z,74.00
2018-07-22T09:31:29.378Z,75.20
2018-07-22T09:33:57.927Z,71.30
2018-07-22T09:36:26.480Z,72.80
2018-07-22T09:38:55.514Z,71.90
2018-07-22T09:41:24.516Z,73.60
2018-07-22T09:43:53.031Z,73.10
2018-07-22T09:46:23.007Z,70.90
2018-07-22T09:48:51.931Z,71.80
2018-07-22T09:51:21.028Z,71.90
2018-07-22T09:53:49.751Z,74.40
2018-07-22T09:56:18.298Z,67.10
2018-07-22T09:58:47.063Z,69.40
2018-07-22T10:01:16.236Z,68.20
2018-07-22T10:03:44.668Z,68.40
2018-07-22T10:06:16.745Z,66.90
2018-07-22T10:08:49.886Z,64.80
2018-07-22T10:11:26.878Z,65.40
2018-07-22T10:16:35.180Z,65.50
2018-07-22T10:19:03.704Z,64.70
2018-07-22T10:21:32.001Z,64.90
2018-07-22T10:24:01.320Z,65.00
2018-07-22T10:26:29.629Z,65.60
2018-07-22T10:28:58.080Z,65.40
2018-07-22T10:31:26.424Z,61.10
2018-07-22T10:33:54.838Z,62.70
2018-07-22T10:36:23.328Z,64.40
2018-07-22T10:38:51.655Z,61.60
2018-07-22T10:41:20.025Z,62.30
2018-07-22T10:43:48.322Z,61.70
2018-07-22T10:46:16.644Z,63.30
2018-07-22T10:48:44.952Z,61.20
2018-07-22T10:51:13.323Z,63.50
2018-07-22T10:53:41.691Z,59.70
2018-07-22T10:56:10.123Z,59.50
2018-07-22T10:58:38.388Z,59.60
2018-07-22T11:01:08.838Z,59.70
2018-07-22T11:03:37.209Z,59.80
2018-07-22T11:06:05.573Z,60.40
2018-07-22T11:08:33.916Z,61.20
2018-07-22T11:11:02.219Z,60.20
2018-07-22T11:13:30.531Z,57.30
2018-07-22T11:15:58.863Z,58.40
2018-07-22T11:18:27.171Z,59.30
2018-07-22T11:20:55.499Z,56.90
2018-07-22T11:23:23.791Z,56.40
2018-07-22T11:25:52.124Z,57.90
2018-07-22T11:28:20.428Z,56.50
2018-07-22T11:30:48.752Z,56.00
2018-07-22T11:33:17.063Z,56.20
2018-07-22T11:35:46.024Z,56.70
2018-07-22T11:38:14.380Z,60.10
2018-07-22T11:40:42.838Z,55.60
2018-07-22T11:43:11.978Z,56.00
2018-07-22T11:45:41.377Z,55.80
2018-07-22T11:48:09.695Z,55.40
2018-07-22T11:50:38.053Z,53.00
2018-07-22T11:53:06.375Z,52.70
2018-07-22T11:55:34.668Z,54.80
2018-07-22T11:58:03.046Z,53.20
2018-07-22T12:00:31.407Z,55.10
2018-07-22T12:02:59.769Z,55.40
2018-07-22T12:05:28.084Z,55.90
2018-07-22T12:07:56.396Z,54.80
2018-07-22T12:10:24.702Z,54.40
2018-07-22T12:12:53.331Z,55.00
2018-07-22T12:15:21.625Z,53.60
2018-07-22T12:17:50.608Z,54.30
2018-07-22T12:20:18.920Z,54.90
2018-07-22T12:22:47.257Z,52.70
2018-07-22T12:25:15.871Z,56.60
2018-07-22T12:27:44.166Z,51.90
2018-07-22T12:30:12.503Z,52.80
2018-07-22T12:32:40.808Z,53.80
2018-07-22T12:35:09.123Z,52.90
2018-07-22T12:37:37.447Z,53.40
2018-07-22T12:40:05.908Z,51.30
2018-07-22T12:42:34.227Z,50.30
2018-07-22T12:45:03.428Z,52.40
2018-07-22T12:47:31.724Z,51.40
2018-07-22T12:50:00.021Z,50.90
2018-07-22T12:52:28.324Z,51.90
2018-07-22T12:54:56.713Z,51.90
2018-07-22T12:57:25.036Z,52.00
2018-07-22T12:59:53.408Z,52.20
2018-07-22T13:02:21.712Z,54.70
2018-07-22T13:04:50.131Z,49.40
2018-07-22T13:07:18.423Z,47.60
2018-07-22T13:09:46.736Z,47.60
2018-07-22T13:12:15.072Z,47.80
2018-07-22T13:14:43.380Z,48.00
2018-07-22T13:17:11.911Z,46.40
2018-07-22T13:19:40.283Z,46.10
2018-07-22T13:22:08.591Z,48.50
2018-07-22T13:24:36.935Z,48.60
2018-07-22T13:27:05.308Z,47.70
2018-07-22T13:29:33.636Z,46.50
2018-07-22T13:32:01.940Z,47.10
2018-07-22T13:34:30.267Z,46.80
2018-07-22T13:36:58.605Z,47.30
2018-07-22T13:39:26.911Z,45.50
2018-07-22T13:41:55.592Z,45.20
2018-07-22T13:44:24.563Z,44.90
2018-07-22T13:46:52.921Z,45.40
2018-07-22T13:49:21.223Z,46.00
2018-07-22T13:51:49.639Z,45.40
2018-07-22T13:54:17.979Z,45.10
2018-07-22T13:56:46.317Z,44.50
2018-07-22T13:59:15.356Z,45.20
2018-07-22T14:01:43.644Z,46.00
2018-07-22T14:04:11.963Z,45.70
2018-07-22T14:06:40.261Z,45.90
2018-07-22T14:09:10.199Z,44.40
2018-07-22T14:11:38.500Z,44.00
2018-07-22T14:14:07.680Z,44.10
2018-07-22T14:16:36.203Z,45.20
2018-07-22T14:19:05.271Z,46.50
2018-07-22T14:21:33.786Z,44.90
2018-07-22T14:24:02.412Z,45.70
2018-07-22T14:26:30.700Z,45.50
2018-07-22T14:28:59.008Z,46.60
2018-07-22T14:31:27.345Z,44.50
2018-07-22T14:33:55.640Z,45.50
2018-07-22T14:36:23.996Z,41.90
2018-07-22T14:38:52.296Z,42.00
2018-07-22T14:41:20.603Z,43.00
2018-07-22T14:43:48.912Z,42.90
2018-07-22T14:46:17.232Z,42.80
2018-07-22T14:48:45.540Z,43.80
2018-07-22T14:51:14.496Z,43.90
2018-07-22T14:53:42.831Z,44.40
2018-07-22T14:56:11.130Z,43.20
2018-07-22T14:58:40.232Z,44.30
2018-07-22T15:01:12.056Z,45.10
2018-07-22T15:03:41.864Z,40.20
2018-07-22T15:06:10.191Z,41.10
2018-07-22T15:08:38.745Z,41.80
2018-07-22T15:11:07.121Z,42.00
2018-07-22T15:13:35.433Z,43.80
2018-07-22T15:16:03.872Z,44.20
2018-07-22T15:18:32.276Z,43.00
2018-07-22T15:21:00.584Z,44.10
2018-07-22T15:23:28.943Z,43.90
2018-07-22T15:25:57.915Z,44.60
2018-07-22T15:28:26.230Z,43.80
2018-07-22T15:30:54.555Z,45.60
2018-07-22T15:33:22.880Z,47.70
2018-07-22T15:35:51.425Z,50.20
2018-07-22T15:38:19.744Z,51.70
2018-07-22T15:40:48.167Z,52.00
2018-07-22T15:43:16.483Z,53.60
2018-07-22T15:45:44.868Z,53.90
2018-07-22T15:48:13.235Z,54.30
2018-07-22T15:50:41.550Z,53.20
2018-07-22T15:53:09.856Z,53.00
2018-07-22T15:55:38.540Z,52.80
2018-07-22T15:58:06.628Z,53.00
2018-07-22T16:00:34.952Z,52.90
2018-07-22T16:03:03.349Z,52.40
2018-07-22T16:05:31.663Z,52.60
2018-07-22T16:07:59.963Z,54.20
2018-07-22T16:10:28.268Z,55.20
2018-07-22T16:12:56.571Z,55.80
2018-07-22T16:15:25.205Z,56.00
2018-07-22T16:17:55.627Z,56.50
2018-07-22T16:20:23.918Z,56.20
2018-07-22T16:22:52.232Z,55.30
2018-07-22T16:25:20.536Z,54.70
2018-07-22T16:27:49.656Z,56.40
2018-07-22T16:30:17.996Z,56.40
2018-07-22T16:32:46.307Z,55.20
2018-07-22T16:35:14.601Z,55.60
2018-07-22T16:37:42.943Z,56.80
2018-07-22T16:40:11.267Z,58.60
2018-07-22T16:42:39.904Z,58.20
2018-07-22T16:45:08.203Z,59.10
2018-07-22T16:47:36.543Z,59.80
2018-07-22T16:50:05.804Z,59.70
2018-07-22T16:52:34.839Z,59.70
2018-07-22T16:55:03.807Z,59.90
2018-07-22T16:57:32.867Z,61.20
2018-07-22T17:00:01.171Z,61.50
2018-07-22T17:02:29.496Z,60.60
2018-07-22T17:04:57.812Z,60.50
2018-07-22T17:07:26.160Z,61.40
2018-07-22T17:09:54.480Z,61.70
2018-07-22T17:12:22.781Z,61.30
2018-07-22T17:14:51.148Z,61.30
2018-07-22T17:17:19.448Z,61.80
2018-07-22T17:19:47.752Z,62.40
2018-07-22T17:22:16.653Z,63.00
2018-07-22T17:24:45.083Z,63.60
2018-07-22T17:27:13.380Z,62.80
2018-07-22T17:29:41.688Z,63.30
2018-07-22T17:32:10.015Z,63.90
2018-07-22T17:34:38.312Z,63.60
2018-07-22T17:37:06.631Z,63.70
2018-07-22T17:39:34.935Z,63.80
2018-07-22T17:42:03.251Z,65.00
2018-07-22T17:44:31.561Z,64.70
2018-07-22T17:46:59.889Z,64.80
2018-07-22T17:49:28.468Z,65.90
2018-07-22T17:51:56.795Z,65.80
2018-07-22T17:54:25.113Z,65.80
2018-07-22T17:56:53.430Z,66.60
2018-07-22T17:59:22.065Z,66.30
2018-07-22T18:01:50.367Z,66.40
2018-07-22T18:04:18.683Z,65.80
2018-07-22T18:06:46.995Z,64.70
2018-07-22T18:09:15.299Z,64.40
2018-07-22T18:11:44.395Z,65.00
2018-07-22T18:14:13.435Z,64.50
2018-07-22T18:16:41.740Z,65.10
2018-07-22T18:19:10.075Z,63.70
2018-07-22T18:21:38.526Z,64.30
2018-07-22T18:24:06.732Z,66.90
2018-07-22T18:26:35.542Z,67.00
2018-07-22T18:29:03.979Z,64.20
2018-07-22T18:31:33.133Z,66.10
2018-07-22T18:34:01.440Z,64.60
2018-07-22T18:36:29.763Z,64.90
2018-07-22T18:38:58.708Z,64.90
2018-07-22T18:41:27.039Z,65.00
2018-07-22T18:43:55.355Z,64.70
2018-07-22T18:46:23.670Z,65.80
2018-07-22T18:48:52.008Z,66.40
2018-07-22T18:51:20.302Z,66.60
2018-07-22T18:53:48.612Z,65.40
2018-07-22T18:56:16.932Z,66.10
2018-07-22T18:58:45.235Z,64.70
2018-07-22T19:01:13.533Z,64.80
2018-07-22T19:03:41.851Z,65.20
2018-07-22T19:06:10.151Z,66.40
2018-07-22T19:08:38.465Z,65.90
2018-07-22T19:11:06.916Z,67.00
2018-07-22T19:13:35.221Z,67.40
2018-07-22T19:16:03.539Z,67.60
2018-07-22T19:18:31.856Z,68.20
2018-07-22T19:21:00.204Z,68.90
2018-07-22T19:23:28.532Z,69.60
2018-07-22T19:25:56.844Z,70.30
2018-07-22T19:28:25.156Z,70.90
2018-07-22T19:30:53.481Z,71.60
2018-07-22T19:33:21.792Z,72.30
2018-07-22T19:35:51.111Z,72.80
2018-07-22T19:38:19.427Z,73.60
2018-07-22T19:40:47.772Z,74.00
2018-07-22T19:43:16.079Z,74.20
2018-07-22T19:45:44.411Z,74.30
2018-07-22T19:48:12.721Z,74.40
2018-07-22T19:50:41.051Z,74.50
2018-07-22T19:53:09.368Z,74.60
2018-07-22T19:55:37.667Z,74.80
2018-07-22T19:58:06.049Z,75.20
2018-07-22T20:00:34.645Z,75.60
2018-07-22T20:03:02.951Z,76.50
2018-07-22T20:05:31.247Z,77.90
2018-07-22T20:07:59.576Z,79.00
2018-07-22T20:10:27.912Z,80.00
2018-07-22T20:12:57.080Z,80.70
2018-07-22T20:15:25.502Z,81.40
2018-07-22T20:17:53.886Z,82.40
2018-07-22T20:20:22.236Z,81.40
